Flight Track Log - Related Links

Times and Time Zones

All times are in EDT time to prevent confusion due to time zone crossing. See the AAL1212 flight status page for this flight to view local times or setup timezone preferences in your user account.

Time Position Orientation Groundspeed Altitude Reporting Facility
EDT Latitude Longitude Course Direction KTS MPH feet Rate Location/Type
Tue 03:38:52 PM 38.0706 -85.7922 264° West 302 348 5,700  Level Indianapolis Center
Tue 03:39:00 PM 38.0294 -86.1040 244° Southwest  Level Estimated
Tue 03:39:54 PM 38.0992 -85.8806 292° West 268 308 8,900  Level Indianapolis Center
Tue 03:40:00 PM 38.0500 -86.2467 270° West  Level FlightAware Approximate
Tue 03:40:56 PM 38.1094 -85.9794 278° West 282 325 11,000  Level Indianapolis Center
Tue 03:41:00 PM 38.0386 -86.3828 264° West  Level FlightAware Approximate
Tue 03:41:58 PM 38.0983 -86.0967 263° West 316 364 12,800  Level Indianapolis Center
Tue 03:42:00 PM 38.0267 -86.5189 264° West  Level FlightAware Approximate
Tue 03:43:00 PM 38.0149 -86.6551 264° West  Level FlightAware Approximate
Tue 03:43:00 PM 38.0850 -86.2339 263° West 374 430 15,200  Level Indianapolis Center
Tue 03:44:00 PM 38.0035 -86.7914 264° West  Level FlightAware Approximate
Tue 03:44:02 PM 38.0722 -86.3714 263° West 388 447 17,700  Level Indianapolis Center
Tue 03:45:05 PM 38.0308 -86.5089 249° West 416 479 19,800 1,968 Climbing Indianapolis Center
Tue 03:46:07 PM 37.9736 -86.6411 241° Southwest 421 484 21,800 2,032 Climbing Indianapolis Center
Tue 03:47:09 PM 37.9014 -86.8072 241° Southwest 439 505 24,000 1,790 Climbing Indianapolis Center
Tue 03:48:11 PM 37.8394 -86.9500 241° Southwest 451 519 25,500 1,742 Climbing Indianapolis Center
Tue 03:49:13 PM 37.7742 -87.0958 241° Southwest 465 535 27,600 2,323 Climbing Indianapolis Center
Tue 03:50:15 PM 37.7083 -87.2481 241° Southwest 461 531 30,300 1,984 Climbing Indianapolis Center
Tue 03:51:17 PM 37.6492 -87.3836 241° Southwest 445 512 31,700 1,210 Climbing Indianapolis Center
Tue 03:52:19 PM 37.5889 -87.5189 241° Southwest 444 511 32,800 629 Climbing Indianapolis Center
Tue 03:53:21 PM 37.5275 -87.6544 240° Southwest 444 511 33,000 384 Climbing Indianapolis Center
Tue 03:54:24 PM 37.4681 -87.7886 241° Southwest 440 506 33,600 768 Climbing Indianapolis Center
Tue 03:55:26 PM 37.4078 -87.9225 240° Southwest 440 506 34,600 945 Climbing Indianapolis Center
Tue 03:56:31 PM 37.3367 -88.0792 240° Southwest 436 502 35,600 661 Climbing Memphis Center
Tue 03:57:33 PM 37.2783 -88.2103 241° Southwest 435 501 36,000 194 Climbing Memphis Center
Tue 03:58:35 PM 37.2186 -88.3389 240° Southwest 430 495 36,000  Level Memphis Center
Tue 03:59:37 PM 37.1592 -88.4694 240° Southwest 430 495 36,000  Level Memphis Center
Tue 04:00:39 PM 37.1000 -88.5994 240° Southwest 430 495 36,000  Level Memphis Center
Tue 04:01:41 PM 37.0286 -88.7531 240° Southwest 430 495 36,000  Level Memphis Center
Tue 04:02:43 PM 36.9678 -88.8811 239° Southwest 430 495 36,000  Level Memphis Center
Tue 04:03:46 PM 36.9089 -89.0097 240° Southwest 430 495 36,000  Level Memphis Center
Tue 04:04:48 PM 36.8433 -89.1350 237° Southwest 430 495 36,000  Level Memphis Center
Tue 04:05:50 PM 36.7772 -89.2572 236° Southwest 430 495 36,000  Level Memphis Center
Tue 04:06:52 PM 36.7114 -89.3800 236° Southwest 430 495 36,000  Level Memphis Center
Tue 04:07:54 PM 36.6325 -89.5275 236° Southwest 430 495 36,000  Level Memphis Center
Tue 04:08:56 PM 36.5661 -89.6506 236° Southwest 430 495 36,000  Level Memphis Center
Tue 04:09:58 PM 36.4983 -89.7728 235° Southwest 430 495 36,000  Level Memphis Center
Tue 04:11:00 PM 36.4314 -89.8936 235° Southwest 430 495 36,000  Level Memphis Center
Tue 04:12:02 PM 36.3503 -90.0397 235° Southwest 430 495 36,000  Level Memphis Center
Tue 04:13:04 PM 36.2817 -90.1622 235° Southwest 430 495 36,000  Level Memphis Center
Tue 04:14:06 PM 36.2125 -90.2839 235° Southwest 431 496 36,000  Level Memphis Center
Tue 04:15:08 PM 36.1453 -90.4061 236° Southwest 431 496 36,000  Level Memphis Center
Tue 04:16:10 PM 36.0764 -90.5283 235° Southwest 431 496 36,000  Level Memphis Center
Tue 04:17:12 PM 36.0086 -90.6492 235° Southwest 431 496 36,000  Level Memphis Center
Tue 04:18:15 PM 35.9258 -90.7953 235° Southwest 431 496 36,000  Level Memphis Center
Tue 04:19:17 PM 35.8572 -90.9172 235° Southwest 431 496 36,000  Level Memphis Center
Tue 04:20:19 PM 35.8008 -91.0394 240° Southwest 420 483 36,000  Level Memphis Center
Tue 04:21:21 PM 35.7800 -91.1819 260° West 424 488 36,000  Level Memphis Center
Tue 04:22:23 PM 35.7650 -91.3244 263° West 424 488 36,000  Level Memphis Center
Tue 04:23:25 PM 35.7469 -91.4717 261° West 422 486 36,000  Level Memphis Center
Tue 04:24:27 PM 35.7292 -91.6114 261° West 419 482 36,000  Level Memphis Center
Tue 04:25:29 PM 35.7142 -91.7508 262° West 416 479 36,000  Level Memphis Center
Tue 04:26:31 PM 35.6944 -91.9158 262° West 411 473 36,000  Level Memphis Center
Tue 04:27:33 PM 35.6781 -92.0528 262° West 410 472 36,000  Level Memphis Center
Tue 04:28:35 PM 35.6611 -92.1892 261° West 407 468 36,000  Level Memphis Center
Tue 04:29:37 PM 35.6444 -92.3258 262° West 407 468 36,000  Level Memphis Center
Tue 04:30:40 PM 35.6269 -92.4636 261° West 408 470 36,000  Level Memphis Center
Tue 04:31:42 PM 35.6072 -92.6286 262° West 408 470 36,000  Level Memphis Center
Tue 04:32:44 PM 35.5908 -92.7614 261° West 408 470 36,000  Level Memphis Center
Tue 04:33:46 PM 35.5742 -92.8964 261° West 408 470 36,000  Level Memphis Center
Tue 04:34:48 PM 35.5578 -93.0322 262° West 407 468 36,000  Level Memphis Center
Tue 04:35:50 PM 35.5411 -93.1692 262° West 407 468 36,000  Level Memphis Center
Tue 04:36:52 PM 35.5111 -93.3297 257° West 403 464 36,000  Level Memphis Center
Tue 04:37:54 PM 35.4669 -93.4522 246° West 404 465 36,000  Level Memphis Center
Tue 04:38:56 PM 35.4225 -93.5772 246° West 404 465 36,000  Level Memphis Center
Tue 04:39:58 PM 35.3700 -93.7219 246° West 404 465 36,000  Level Memphis Center
Tue 04:41:00 PM 35.3242 -93.8481 246° West 404 465 36,000  Level Memphis Center
Tue 04:42:02 PM 35.2772 -93.9761 246° West 405 466 36,000  Level Memphis Center
Tue 04:43:05 PM 35.2314 -94.1028 246° West 408 470 36,000  Level Memphis Center
Tue 04:44:07 PM 35.1850 -94.2289 246° West 408 470 36,000  Level Memphis Center
Tue 04:45:09 PM 35.1350 -94.3611 245° Southwest 408 470 36,000  Level Memphis Center
Tue 04:46:11 PM 35.0892 -94.4869 246° West 409 471 36,000  Level Memphis Center
Tue 04:47:13 PM 35.0422 -94.6119 245° Southwest 409 471 36,000  Level Memphis Center
Tue 04:48:15 PM 34.9594 -94.7389 232° Southwest 408 470 36,000  Level Memphis Center
Tue 04:49:17 PM 34.8742 -94.8317 222° Southwest 410 472 36,000  Level Memphis Center
Tue 04:50:01 PM 34.8056 -94.9056 221° Southwest 413 475 36,000  Level Fort Worth Center
Tue 04:51:04 PM 34.7225 -94.9961 222° Southwest 409 471 36,000 -1,200 Level Fort Worth Center
Tue 04:52:06 PM 34.6381 -95.0869 222° Southwest 407 468 33,500 -3,097 Descending Fort Worth Center
Tue 04:53:08 PM 34.5444 -95.1842 221° Southwest 421 484 29,600 -3,696 Descending Fort Worth Center
Tue 04:54:11 PM 34.4508 -95.2847 222° Southwest 452 520 25,800 -2,710 Descending Fort Worth Center
Tue 04:55:12 PM 34.3558 -95.3847 221° Southwest 456 525 24,000 -878 Descending Fort Worth Center
Tue 04:56:14 PM 34.2436 -95.5042 221° Southwest 453 521 24,000  Level Fort Worth Center
Tue 04:57:16 PM 34.1586 -95.5908 220° Southwest 446 513 24,000 -194 Level Fort Worth Center
Tue 04:58:18 PM 34.0503 -95.7053 221° Southwest 448 516 23,600 -1,597 Descending Fort Worth Center
Tue 04:59:20 PM 33.9592 -95.8025 222° Southwest 443 510 20,700 -2,661 Descending Fort Worth Center
Tue 05:00:22 PM 33.8694 -95.8925 220° Southwest 427 491 18,100 -2,274 Descending Fort Worth Center
Tue 05:01:24 PM 33.7700 -95.9983 222° Southwest 413 475 16,000 -1,680 Descending Fort Worth Center
Tue 05:02:27 PM 33.6828 -96.0875 220° Southwest 414 476 14,600 -1,286 Descending Fort Worth Center
Tue 05:03:30 PM 33.5900 -96.1833 221° Southwest 411 473 13,300 -1,210 Descending Fort Worth Center
Tue 05:04:31 PM 33.5092 -96.2689 221° Southwest 391 450 12,100 -1,122 Descending Fort Worth Center
Tue 05:05:33 PM 33.4389 -96.3542 225° Southwest 356 410 11,000 -816 Descending Fort Worth Center
Tue 05:06:36 PM 33.3775 -96.4281 225° Southwest 292 336 10,400 -1,056 Descending Fort Worth Center
Tue 05:07:38 PM 33.3222 -96.4939 225° Southwest 283 326 8,800 -1,597 Descending Fort Worth Center
Tue 05:08:40 PM 33.2756 -96.5736 235° Southwest 275 316 7,100 -1,500 Descending Fort Worth Center
Tue 05:09:42 PM 33.2356 -96.6469 237° Southwest 269 310 5,700 -1,016 Descending Fort Worth Center
Tue 05:10:44 PM 33.1939 -96.7239 237° Southwest 260 299 5,000 -339 Descending Fort Worth Center
Tue 05:11:46 PM 33.1542 -96.7928 235° Southwest 254 292 5,000 -435 Level Fort Worth Center
Tue 05:12:48 PM 33.1106 -96.8719 237° Southwest 257 296 4,100 -968 Descending Fort Worth Center
Tue 05:13:50 PM 33.0744 -96.9464 240° Southwest 262 302 3,000 -532 Descending Fort Worth Center
Tue 05:14:52 PM 33.0306 -96.9900 220° Southwest 210 242 3,000 -581 Level Fort Worth Center
Tue 05:15:54 PM 32.9814 -97.0106 199° South 170 196 1,800 -768 Descending Fort Worth Center
Tue 05:16:57 PM 32.9453 -97.0106 180° South 131 151 1,400 -480 Descending Fort Worth Center
Tue 05:17:59 PM 32.9111 -97.0094 178° South 123 142 800 -581 Descending Fort Worth Center

Login

Don't have an account? Register now (free) for customized features, flight alerts, and more!